Time;durP1;ratioP1;P1;durP2;ratioP2;P2;SDS_P1;SDS_P2;PMS_P1;PMS_P2;Temp;Humidity;BMP_temperature;BMP_pressure;BME280_temperature;BME280_humidity;BME280_pressure;Samples;Min_cycle;Max_cycle;Signal;HPM_P1;HPM_P2
2023/03/31 00:00:28;;;;;;;2.80;1.87;;;17.30;63.50;18.20;99760.00;;;;5008694;28;20199;-51
2023/03/31 00:02:54;;;;;;;2.27;1.70;;;17.20;63.50;18.20;99750.00;;;;5008921;28;20208;-51
2023/03/31 00:05:23;;;;;;;2.60;1.77;;;17.30;63.70;18.20;99737.00;;;;5007907;28;20227;-51
2023/03/31 00:08:00;;;;;;;2.67;1.93;;;17.20;63.70;18.20;99726.00;;;;5007968;28;20216;-51
2023/03/31 00:10:28;;;;;;;2.17;1.73;;;17.20;63.70;18.20;99737.00;;;;5008158;28;20251;-51
2023/03/31 00:12:53;;;;;;;1.90;1.70;;;17.20;63.70;18.10;99731.00;;;;5011652;28;20207;-51
2023/03/31 00:15:19;;;;;;;2.57;1.90;;;17.20;63.80;18.20;99727.00;;;;5013001;28;20186;-51
2023/03/31 00:17:46;;;;;;;1.90;1.60;;;17.20;63.70;18.20;99736.00;;;;5010851;28;20183;-52
2023/03/31 00:20:12;;;;;;;2.57;1.73;;;17.20;63.70;18.10;99658.00;;;;5009023;28;20183;-51
2023/03/31 00:22:40;;;;;;;3.03;1.63;;;17.20;63.70;18.10;99731.00;;;;5009042;28;20211;-50
2023/03/31 00:25:09;;;;;;;2.63;2.03;;;17.20;63.70;18.10;99719.00;;;;5009049;28;20186;-50
2023/03/31 00:27:35;;;;;;;2.20;2.00;;;17.20;63.70;18.10;99727.00;;;;5008998;28;20203;-50
2023/03/31 00:30:01;;;;;;;2.60;1.93;;;17.20;63.90;18.10;99721.00;;;;5008790;28;20179;-51
2023/03/31 00:32:27;;;;;;;2.77;2.00;;;17.20;63.90;18.10;99712.00;;;;5008922;28;20204;-50
2023/03/31 00:34:53;;;;;;;2.97;2.07;;;17.20;63.90;18.10;99711.00;;;;5009071;28;20203;-50
2023/03/31 00:37:18;;;;;;;2.77;2.00;;;17.20;63.90;18.10;99707.00;;;;5009146;28;20263;-50
2023/03/31 00:39:44;;;;;;;2.60;1.90;;;17.20;63.90;18.10;99703.00;;;;5009122;28;20186;-49
2023/03/31 00:42:13;;;;;;;2.70;1.63;;;17.10;63.80;18.00;99697.00;;;;5008868;28;20204;-50
2023/03/31 00:45:19;;;;;;;3.30;1.83;;;17.10;63.90;18.10;99700.00;;;;5007434;28;20672;-50
2023/03/31 00:47:50;;;;;;;2.90;1.90;;;17.20;64.10;17.80;99679.00;;;;5008707;28;20198;-51
2023/03/31 00:50:20;;;;;;;2.10;1.80;;;17.10;63.90;18.00;99669.00;;;;5007248;28;20670;-51
2023/03/31 00:52:47;;;;;;;2.43;1.90;;;17.10;64.00;18.00;99669.00;;;;5006950;28;20201;-50
2023/03/31 00:55:18;;;;;;;2.10;1.80;;;17.10;64.10;18.00;99667.00;;;;5007201;28;20184;-50
2023/03/31 00:57:45;;;;;;;2.73;1.90;;;17.10;64.10;18.00;99655.00;;;;5007255;28;20178;-50
2023/03/31 01:00:15;;;;;;;3.43;2.00;;;17.10;64.10;18.00;99648.00;;;;5007365;28;20523;-50
2023/03/31 01:02:51;;;;;;;2.33;1.90;;;17.10;64.10;18.00;99640.00;;;;5007242;28;20347;-50
2023/03/31 01:05:26;;;;;;;2.87;1.80;;;17.10;64.20;18.00;99637.00;;;;5008752;28;20202;-51
2023/03/31 01:07:52;;;;;;;2.00;1.70;;;17.10;64.10;18.00;99625.00;;;;5007219;28;20191;-50
2023/03/31 01:10:18;;;;;;;3.03;1.90;;;17.10;64.20;18.00;99621.00;;;;5007023;28;20233;-51
2023/03/31 01:12:46;;;;;;;2.50;1.80;;;17.10;64.10;18.00;99605.00;;;;5008241;28;20201;-51
2023/03/31 01:15:12;;;;;;;2.10;1.70;;;17.10;64.20;18.00;99608.00;;;;5007652;28;20662;-52
2023/03/31 01:17:39;;;;;;;3.03;1.97;;;17.00;64.10;18.00;99604.00;;;;5008435;28;20187;-51
2023/03/31 01:20:22;;;;;;;1.90;1.70;;;17.00;64.20;18.00;99609.00;;;;5008517;28;20273;-50
2023/03/31 01:23:32;;;;;;;1.90;1.60;;;17.00;64.10;18.00;99593.00;;;;5008451;28;20209;-50
2023/03/31 01:26:55;;;;;;;1.87;1.70;;;17.00;64.20;17.90;99508.00;;;;5007838;28;20185;-50
2023/03/31 01:29:52;;;;;;;3.07;1.80;;;17.00;64.20;17.90;99582.00;;;;5013026;28;20215;-50
2023/03/31 01:32:57;;;;;;;3.17;1.93;;;17.00;64.30;17.90;99575.00;;;;5010453;28;20204;-50
2023/03/31 01:36:01;;;;;;;2.50;1.70;;;17.00;64.30;17.90;99575.00;;;;5010545;28;20266;-51
2023/03/31 01:39:03;;;;;;;2.20;1.60;;;17.00;64.30;17.90;99565.00;;;;5008729;28;20191;-52
2023/03/31 01:42:00;;;;;;;1.93;1.60;;;17.00;64.30;17.80;99562.00;;;;5011604;28;20202;-50
2023/03/31 01:44:56;;;;;;;2.13;1.77;;;17.00;64.30;17.80;99556.00;;;;5010366;28;20208;-50
2023/03/31 01:48:05;;;;;;;2.87;1.80;;;17.00;64.20;17.80;99534.00;;;;5011890;28;20195;-50
2023/03/31 01:51:01;;;;;;;2.30;1.70;;;17.00;64.20;17.80;99541.00;;;;4994326;28;20298;-50
2023/03/31 01:53:41;;;;;;;1.70;1.60;;;16.90;64.20;17.80;99538.00;;;;5010311;28;20266;-50
2023/03/31 01:56:15;;;;;;;2.83;1.80;;;16.90;64.30;17.80;99553.00;;;;5011917;28;20187;-51
2023/03/31 01:59:11;;;;;;;2.77;1.77;;;16.90;64.30;17.80;99542.00;;;;5010383;28;20314;-50
2023/03/31 02:01:56;;;;;;;1.90;1.53;;;16.90;64.30;17.80;99541.00;;;;5010166;28;20238;-50
2023/03/31 02:04:33;;;;;;;3.03;1.87;;;16.90;64.30;17.80;99539.00;;;;5010035;28;20187;-50
2023/03/31 02:07:04;;;;;;;2.63;2.00;;;16.90;64.30;17.80;99539.00;;;;5010066;28;20186;-50
2023/03/31 02:09:34;;;;;;;1.90;1.70;;;16.90;64.40;17.80;99529.00;;;;5010002;28;20204;-50
2023/03/31 02:12:01;;;;;;;2.10;1.70;;;16.90;64.40;17.80;99535.00;;;;5010025;28;20615;-50
2023/03/31 02:14:28;;;;;;;1.77;1.67;;;16.90;64.50;17.80;99523.00;;;;5009860;28;20281;-51
2023/03/31 02:16:57;;;;;;;2.17;1.70;;;16.90;64.40;17.80;99505.00;;;;5009999;28;20302;-51
2023/03/31 02:19:25;;;;;;;2.50;1.80;;;16.90;64.40;17.80;99513.00;;;;5011264;28;20195;-51
2023/03/31 02:21:50;;;;;;;3.20;1.70;;;16.90;64.50;17.70;99516.00;;;;5009976;28;20195;-51
2023/03/31 02:24:18;;;;;;;2.17;1.83;;;16.90;64.50;17.70;99494.00;;;;5009697;28;20198;-50
2023/03/31 02:26:51;;;;;;;2.97;1.80;;;16.80;64.40;17.50;99491.00;;;;5009886;28;20615;-50
2023/03/31 02:29:16;;;;;;;2.23;1.90;;;16.80;64.40;17.70;99479.00;;;;5009559;28;20201;-51
2023/03/31 02:32:16;;;;;;;2.70;1.90;;;16.90;64.50;17.70;99472.00;;;;5009680;28;20194;-51
2023/03/31 02:34:42;;;;;;;1.60;1.50;;;16.80;64.40;17.70;99461.00;;;;5010774;28;20241;-50
2023/03/31 02:37:08;;;;;;;2.57;1.80;;;16.80;64.40;17.70;99453.00;;;;5009566;28;20586;-50
2023/03/31 02:39:35;;;;;;;2.30;1.57;;;16.80;64.40;17.70;99438.00;;;;5009482;28;20673;-49
2023/03/31 02:42:05;;;;;;;2.77;1.60;;;16.80;64.50;17.70;99427.00;;;;5009113;28;20284;-50
2023/03/31 02:44:33;;;;;;;1.87;1.67;;;16.80;64.50;17.70;99416.00;;;;5009198;28;20175;-50
2023/03/31 02:46:59;;;;;;;2.03;1.60;;;16.80;64.50;17.70;99398.00;;;;5010749;28;20216;-50
2023/03/31 02:49:25;;;;;;;2.03;1.53;;;16.80;64.50;17.70;99390.00;;;;5009183;28;20547;-49
2023/03/31 02:52:12;;;;;;;2.70;1.73;;;16.80;64.50;17.70;99391.00;;;;5009419;28;20196;-50
2023/03/31 02:55:09;;;;;;;2.13;1.53;;;16.80;64.50;17.70;99397.00;;;;5009345;28;20554;-50
2023/03/31 02:57:57;;;;;;;3.17;1.90;;;16.80;64.60;17.70;99389.00;;;;5010149;28;20180;-51
2023/03/31 03:00:55;;;;;;;2.30;1.77;;;16.70;64.50;17.70;99381.00;;;;5009269;28;20171;-51
2023/03/31 03:03:36;;;;;;;2.37;1.60;;;16.80;64.60;17.60;99352.00;;;;5009531;28;20366;-50
2023/03/31 03:06:29;;;;;;;2.10;1.60;;;16.70;64.50;17.60;99341.00;;;;5010627;28;20179;-50
2023/03/31 03:09:24;;;;;;;1.67;1.43;;;16.80;64.70;17.60;99330.00;;;;5010190;28;20199;-51
2023/03/31 03:12:12;;;;;;;2.50;1.77;;;16.80;64.70;17.40;99326.00;;;;5011096;28;20279;-50
2023/03/31 03:14:51;;;;;;;2.43;1.70;;;16.80;64.70;17.60;99326.00;;;;5010151;28;20199;-50
2023/03/31 03:17:44;;;;;;;1.63;1.50;;;16.70;64.50;17.60;99316.00;;;;5008963;28;20302;-51
2023/03/31 03:20:10;;;;;;;2.00;1.60;;;16.80;64.70;17.60;99309.00;;;;5008649;28;20241;-50
2023/03/31 03:22:36;;;;;;;2.57;1.67;;;16.70;64.60;17.60;99314.00;;;;5009640;28;20820;-50
2023/03/31 03:25:04;;;;;;;2.67;1.90;;;16.70;64.70;17.60;99320.00;;;;5008588;28;20218;-51
2023/03/31 03:27:31;;;;;;;3.37;1.90;;;16.70;64.60;17.60;99304.00;;;;5009402;28;20183;-50
2023/03/31 03:29:57;;;;;;;5.50;1.77;;;16.70;64.80;17.60;99291.00;;;;5008469;28;20662;-50
2023/03/31 03:32:23;;;;;;;4.40;1.67;;;16.80;65.00;17.60;99297.00;;;;5007780;28;20555;-50
2023/03/31 03:34:49;;;;;;;3.97;1.93;;;16.80;64.70;17.60;99289.00;;;;5009724;28;20198;-50
2023/03/31 03:37:14;;;;;;;3.50;1.70;;;16.70;64.60;17.60;99308.00;;;;5009409;28;20549;-50
2023/03/31 03:39:40;;;;;;;3.23;1.83;;;16.80;64.70;17.60;99307.00;;;;5009929;28;20184;-50
2023/03/31 03:42:06;;;;;;;4.07;1.83;;;16.70;64.70;17.50;99297.00;;;;5009341;28;20195;-50
2023/03/31 03:44:31;;;;;;;3.13;1.90;;;16.60;64.70;17.50;99282.00;;;;5009328;28;20193;-50
2023/03/31 03:46:57;;;;;;;3.50;2.00;;;16.60;65.00;17.40;99261.00;;;;5010264;28;20233;-49
2023/03/31 03:49:23;;;;;;;4.30;1.90;;;16.50;64.90;17.30;99249.00;;;;5010531;28;20207;-50
2023/03/31 03:51:49;;;;;;;3.80;2.40;;;16.50;65.10;17.30;99249.00;;;;5009515;28;20193;-50
2023/03/31 03:54:15;;;;;;;2.97;2.00;;;16.50;65.10;17.30;99247.00;;;;5010164;28;20179;-50
2023/03/31 03:56:41;;;;;;;3.70;2.10;;;16.50;65.10;17.30;99251.00;;;;5009872;28;20568;-49
2023/03/31 03:59:07;;;;;;;4.23;2.30;;;16.50;65.10;17.20;99229.00;;;;5010077;28;20195;-50
2023/03/31 04:01:32;;;;;;;4.73;2.23;;;16.50;65.10;17.20;99233.00;;;;5009992;28;20203;-50
2023/03/31 04:03:58;;;;;;;4.97;2.17;;;16.40;65.10;17.20;99233.00;;;;5010177;28;20180;-49
2023/03/31 04:06:24;;;;;;;4.53;2.40;;;16.40;65.00;17.10;99239.00;;;;5010409;28;20183;-50
2023/03/31 04:08:49;;;;;;;4.23;2.30;;;16.40;65.00;17.10;99238.00;;;;5010358;28;20618;-49
2023/03/31 04:11:17;;;;;;;3.73;2.07;;;16.30;65.00;17.10;99238.00;;;;5010062;28;20202;-49
2023/03/31 04:13:43;;;;;;;3.13;1.87;;;16.40;65.10;17.10;99234.00;;;;5010468;28;20263;-49
2023/03/31 04:16:09;;;;;;;3.30;2.03;;;16.40;65.00;17.20;99212.00;;;;5004314;28;20188;-49
2023/03/31 04:18:44;;;;;;;5.07;2.30;;;16.40;65.00;17.20;99206.00;;;;5007741;28;20245;-50
2023/03/31 04:21:14;;;;;;;3.30;2.17;;;16.40;64.90;17.20;99217.00;;;;5013043;28;20203;-50
2023/03/31 04:23:45;;;;;;;4.33;2.10;;;16.40;65.00;17.20;99205.00;;;;5015382;28;20547;-50
2023/03/31 04:26:11;;;;;;;4.53;1.97;;;16.40;65.00;17.20;99206.00;;;;5016305;28;20211;-49
2023/03/31 04:28:41;;;;;;;4.33;2.10;;;16.40;64.90;17.20;99199.00;;;;5010584;28;20261;-50
2023/03/31 04:31:08;;;;;;;5.10;2.20;;;16.40;64.90;17.20;99193.00;;;;5009242;28;20770;-50
2023/03/31 04:33:37;;;;;;;4.80;2.37;;;16.40;64.90;17.30;99178.00;;;;5009556;28;20186;-50
2023/03/31 04:36:17;;;;;;;5.23;2.00;;;16.40;64.90;17.30;99183.00;;;;5008066;28;20168;-49
2023/03/31 04:38:45;;;;;;;4.13;1.97;;;16.40;64.90;17.30;99164.00;;;;5007759;28;20672;-50
2023/03/31 04:41:12;;;;;;;4.53;1.97;;;16.40;64.90;17.30;99175.00;;;;5008059;28;20548;-50
2023/03/31 04:43:38;;;;;;;3.13;2.03;;;16.40;65.00;17.30;99145.00;;;;5008927;28;20234;-51
2023/03/31 04:46:04;;;;;;;3.50;2.00;;;16.40;64.90;17.30;99135.00;;;;5009908;28;20557;-50
2023/03/31 04:48:30;;;;;;;4.17;1.97;;;16.40;65.00;17.30;99123.00;;;;5015189;28;20214;-50
2023/03/31 04:50:56;;;;;;;3.13;2.03;;;16.40;65.40;17.30;99114.00;;;;5007659;28;20179;-50
2023/03/31 04:53:21;;;;;;;3.63;2.00;;;16.40;65.50;17.30;99110.00;;;;5009226;28;20670;-50
2023/03/31 04:55:49;;;;;;;3.57;2.03;;;16.40;65.50;17.30;99103.00;;;;5009492;28;20258;-50
2023/03/31 04:58:14;;;;;;;5.53;1.90;;;16.40;65.50;17.30;99095.00;;;;5007605;28;20192;-50
2023/03/31 05:00:40;;;;;;;3.17;1.80;;;16.40;65.50;17.30;99096.00;;;;5006608;28;20183;-50
2023/03/31 05:03:07;;;;;;;3.67;1.80;;;16.40;65.50;17.30;99094.00;;;;5008775;28;20709;-49
2023/03/31 05:05:32;;;;;;;3.37;1.90;;;16.40;65.60;17.30;99083.00;;;;5012315;28;20666;-50
2023/03/31 05:07:58;;;;;;;3.97;1.70;;;16.40;65.50;17.30;99088.00;;;;5012961;28;20199;-50
2023/03/31 05:10:24;;;;;;;3.13;1.90;;;16.40;65.40;17.30;99075.00;;;;5010171;28;20191;-51
2023/03/31 05:12:50;;;;;;;3.03;1.80;;;16.40;65.40;17.30;99069.00;;;;5011277;28;20226;-49
2023/03/31 05:15:16;;;;;;;3.43;1.60;;;16.40;65.40;17.30;99063.00;;;;5011805;28;20260;-50
2023/03/31 05:17:42;;;;;;;3.00;1.60;;;16.40;65.40;17.00;99047.00;;;;5011706;28;20180;-51
2023/03/31 05:20:08;;;;;;;2.43;1.50;;;16.40;65.20;17.30;99059.00;;;;5012675;28;20531;-50
2023/03/31 05:22:37;;;;;;;2.77;1.77;;;16.40;65.20;17.30;99043.00;;;;5012493;28;20226;-49
2023/03/31 05:25:04;;;;;;;2.60;1.67;;;16.40;65.10;17.30;99041.00;;;;5013277;28;20195;-51
2023/03/31 05:27:30;;;;;;;2.57;1.90;;;16.40;65.10;17.30;99027.00;;;;5013410;28;20194;-51
2023/03/31 05:29:55;;;;;;;2.27;1.37;;;16.40;65.10;17.30;99024.00;;;;5011897;28;20190;-50
2023/03/31 05:32:21;;;;;;;3.37;1.90;;;16.40;65.00;17.30;99031.00;;;;5012319;28;20207;-51
2023/03/31 05:34:48;;;;;;;3.80;1.80;;;16.40;65.10;17.30;99019.00;;;;5012899;28;20179;-50
2023/03/31 05:37:14;;;;;;;2.40;1.53;;;16.40;65.10;17.30;99011.00;;;;5013108;28;20258;-50
2023/03/31 05:39:40;;;;;;;3.97;1.60;;;16.40;64.90;17.30;99026.00;;;;5013223;28;20193;-49
2023/03/31 05:42:06;;;;;;;2.80;1.73;;;16.40;65.00;17.30;99015.00;;;;5012615;28;20211;-49
2023/03/31 05:44:32;;;;;;;1.53;1.37;;;16.40;65.00;17.20;99011.00;;;;5012764;28;20650;-50
2023/03/31 05:46:57;;;;;;;1.90;1.50;;;16.30;64.80;17.20;99004.00;;;;5012944;28;20187;-49
2023/03/31 05:49:23;;;;;;;2.90;1.60;;;16.30;64.80;17.20;99010.00;;;;5013361;28;20203;-49
2023/03/31 05:51:50;;;;;;;2.00;1.70;;;16.40;64.90;17.20;99003.00;;;;5012613;28;20196;-50
2023/03/31 05:54:16;;;;;;;2.33;1.50;;;16.30;64.70;17.20;99002.00;;;;5012602;28;20207;-50
2023/03/31 05:56:42;;;;;;;1.60;1.50;;;16.30;64.70;17.20;98988.00;;;;5012657;28;20559;-50
2023/03/31 05:59:07;;;;;;;1.83;1.60;;;16.30;64.70;17.20;98995.00;;;;5012658;28;20180;-49
2023/03/31 06:01:33;;;;;;;2.67;1.77;;;16.30;64.70;17.20;98979.00;;;;5011491;28;20672;-50
2023/03/31 06:03:59;;;;;;;2.67;1.53;;;16.30;64.60;17.20;98973.00;;;;5012375;28;20218;-50
2023/03/31 06:06:25;;;;;;;2.07;1.50;;;16.30;64.60;17.20;98975.00;;;;5012384;28;20187;-50
2023/03/31 06:08:50;;;;;;;1.93;1.53;;;16.30;64.70;17.20;99003.00;;;;5011291;28;20246;-49
2023/03/31 06:11:18;;;;;;;2.13;1.67;;;16.30;64.60;17.20;98970.00;;;;5011627;28;20647;-49
2023/03/31 06:13:44;;;;;;;2.43;1.80;;;16.30;64.70;17.10;98987.00;;;;5011954;28;20175;-50
2023/03/31 06:16:11;;;;;;;2.10;1.70;;;16.30;64.70;17.10;98966.00;;;;5011389;28;20609;-51
2023/03/31 06:18:37;;;;;;;1.73;1.40;;;16.30;64.60;17.10;98975.00;;;;5012258;28;20186;-50
2023/03/31 06:21:03;;;;;;;3.00;1.90;;;16.20;64.50;17.10;98971.00;;;;5009669;28;20203;-50
2023/03/31 06:23:28;;;;;;;2.10;1.43;;;16.30;64.70;17.20;98969.00;;;;5011229;28;20258;-49
2023/03/31 06:26:01;;;;;;;1.93;1.73;;;16.30;64.80;17.10;98963.00;;;;5012198;28;20180;-49
2023/03/31 06:28:27;;;;;;;2.77;1.80;;;16.20;64.80;17.10;98955.00;;;;5007803;28;20205;-50
2023/03/31 06:31:07;;;;;;;2.27;1.80;;;16.20;64.80;17.10;98963.00;;;;5004586;28;20701;-51
2023/03/31 06:33:33;;;;;;;1.93;1.50;;;16.20;64.90;17.10;98967.00;;;;5008166;28;20172;-50
2023/03/31 06:36:02;;;;;;;1.83;1.60;;;16.20;64.90;17.10;98948.00;;;;5013145;28;20200;-50
2023/03/31 06:38:28;;;;;;;1.97;1.60;;;16.20;65.00;17.00;98956.00;;;;5011432;28;20929;-49
2023/03/31 06:40:54;;;;;;;2.40;1.53;;;16.20;64.90;17.10;98959.00;;;;5011110;28;20203;-50
2023/03/31 06:43:20;;;;;;;2.83;1.40;;;16.20;65.10;17.10;98958.00;;;;5011151;28;20207;-50
2023/03/31 06:45:46;;;;;;;2.10;1.50;;;16.20;65.10;17.10;98953.00;;;;5010848;28;20179;-49
2023/03/31 06:48:12;;;;;;;3.37;1.80;;;16.20;65.30;17.10;98953.00;;;;5011191;28;20188;-49
2023/03/31 06:50:38;;;;;;;5.00;1.60;;;16.20;65.40;17.10;98939.00;;;;5010416;28;20203;-49
2023/03/31 06:53:04;;;;;;;4.37;1.63;;;16.20;65.30;17.20;98949.00;;;;5008786;28;20195;-50
2023/03/31 06:55:32;;;;;;;2.70;1.90;;;16.30;65.40;17.20;98941.00;;;;5008903;28;20879;-49
2023/03/31 06:57:58;;;;;;;5.70;1.70;;;16.30;65.50;17.30;98951.00;;;;5009046;28;20180;-50
2023/03/31 07:00:25;;;;;;;2.63;1.83;;;16.40;65.50;17.30;98940.00;;;;5011092;28;20662;-49
2023/03/31 07:02:52;;;;;;;2.70;1.73;;;16.50;65.60;17.40;98943.00;;;;5011136;28;20267;-49
2023/03/31 07:05:18;;;;;;;4.10;1.80;;;16.60;65.80;17.40;98934.00;;;;5008034;28;20180;-50
2023/03/31 07:07:44;;;;;;;3.47;1.83;;;16.60;65.80;17.50;98934.00;;;;5006676;28;20199;-49
2023/03/31 07:10:10;;;;;;;3.87;1.87;;;16.80;66.00;17.50;98945.00;;;;5011023;28;20263;-49
2023/03/31 07:12:36;;;;;;;2.70;1.60;;;16.80;65.80;17.60;98930.00;;;;5010983;28;20199;-49
2023/03/31 07:15:02;;;;;;;3.30;1.30;;;16.90;66.50;17.70;98935.00;;;;5011114;28;20175;-49
2023/03/31 07:17:28;;;;;;;3.07;1.60;;;17.00;65.50;17.70;98939.00;;;;5010920;28;20190;-50
2023/03/31 07:19:53;;;;;;;3.23;1.70;;;17.10;65.30;17.80;98931.00;;;;5010928;28;20178;-49
2023/03/31 07:22:19;;;;;;;2.13;1.43;;;17.20;65.20;17.80;98928.00;;;;5010658;28;20550;-50
2023/03/31 07:24:45;;;;;;;2.10;1.70;;;17.30;65.30;17.90;98927.00;;;;5010827;28;20666;-49
2023/03/31 07:27:11;;;;;;;2.60;1.73;;;17.30;65.20;17.90;98923.00;;;;5009553;28;20199;-49
2023/03/31 07:29:36;;;;;;;2.87;1.60;;;17.30;65.20;18.00;98921.00;;;;5010009;28;20295;-49
2023/03/31 07:32:02;;;;;;;3.83;1.60;;;17.40;65.20;18.00;98914.00;;;;5010564;28;20193;-50
2023/03/31 07:34:28;;;;;;;2.00;1.50;;;17.40;65.10;18.10;98925.00;;;;5011314;28;20188;-50
2023/03/31 07:36:54;;;;;;;2.20;1.63;;;17.40;65.00;18.10;98921.00;;;;5011421;28;20169;-50
2023/03/31 07:39:20;;;;;;;1.80;1.47;;;17.50;65.20;18.20;98909.00;;;;5011249;28;20524;-50
2023/03/31 07:41:46;;;;;;;4.13;1.50;;;17.50;65.20;18.20;98912.00;;;;5009892;28;20283;-50
2023/03/31 07:44:12;;;;;;;1.70;1.30;;;17.50;65.20;18.20;98909.00;;;;5009483;28;20251;-51
2023/03/31 07:46:38;;;;;;;2.10;1.50;;;17.50;65.30;18.20;98923.00;;;;5009339;28;20192;-50
2023/03/31 07:49:04;;;;;;;1.83;1.50;;;17.50;65.30;18.30;98909.00;;;;5008577;28;20203;-50
2023/03/31 07:51:30;;;;;;;2.40;1.57;;;17.60;65.30;18.30;98910.00;;;;5009701;28;20192;-50
2023/03/31 07:53:55;;;;;;;3.40;1.50;;;17.60;65.20;18.30;98903.00;;;;5009264;28;20180;-50
2023/03/31 07:56:23;;;;;;;1.80;1.70;;;17.60;65.20;18.30;98909.00;;;;5008454;28;20180;-51
2023/03/31 07:58:50;;;;;;;2.23;1.70;;;17.60;65.70;18.30;98893.00;;;;5013440;28;20181;-50
2023/03/31 08:01:17;;;;;;;3.67;1.70;;;17.60;66.20;18.40;98892.00;;;;5003026;28;20203;-50
2023/03/31 08:03:46;;;;;;;2.00;1.30;;;17.60;66.90;18.40;98893.00;;;;5004091;28;20687;-50
2023/03/31 08:06:18;;;;;;;7.80;1.70;;;17.60;67.00;18.40;98899.00;;;;5003331;28;20190;-50
2023/03/31 08:08:44;;;;;;;2.53;1.50;;;17.70;66.80;18.40;98892.00;;;;5007300;28;20231;-49
2023/03/31 08:11:09;;;;;;;2.70;1.40;;;17.70;67.00;18.40;98885.00;;;;5010372;28;20207;-51
2023/03/31 08:13:35;;;;;;;4.50;1.53;;;17.70;67.00;18.50;98882.00;;;;5009986;28;20182;-50
2023/03/31 08:16:01;;;;;;;3.27;1.50;;;17.70;66.70;18.50;98872.00;;;;5010442;28;20188;-50
2023/03/31 08:18:27;;;;;;;4.33;1.33;;;17.70;66.60;18.50;98879.00;;;;5010229;28;20210;-50
2023/03/31 08:20:53;;;;;;;2.57;1.40;;;17.70;66.40;18.50;98875.00;;;;5010267;28;20767;-50
2023/03/31 08:23:19;;;;;;;3.33;1.60;;;17.70;66.40;18.50;98875.00;;;;5010307;28;20182;-49
2023/03/31 08:25:44;;;;;;;4.23;1.60;;;17.80;66.40;18.60;98875.00;;;;5010256;28;20755;-50
2023/03/31 08:28:12;;;;;;;5.83;1.30;;;17.80;66.30;18.60;98878.00;;;;5010339;28;20214;-50
2023/03/31 08:30:39;;;;;;;4.73;1.67;;;17.80;66.30;18.60;98883.00;;;;5011125;28;20174;-48
2023/03/31 08:33:06;;;;;;;1.97;1.40;;;17.90;66.60;18.60;98869.00;;;;5016208;28;20616;-49
2023/03/31 08:35:35;;;;;;;3.13;1.33;;;17.90;66.60;18.60;98864.00;;;;5016385;28;20175;-50
2023/03/31 08:38:00;;;;;;;5.13;1.53;;;17.80;66.30;18.60;98854.00;;;;5013473;28;20233;-49
2023/03/31 08:40:27;;;;;;;2.97;1.80;;;17.90;66.60;18.60;98860.00;;;;5010019;28;20184;-50
2023/03/31 08:43:06;;;;;;;9.03;2.03;;;17.90;66.60;18.60;98855.00;;;;5008963;28;20697;-50
2023/03/31 08:45:38;;;;;;;9.47;2.00;;;17.80;66.80;18.60;98866.00;;;;5008923;28;20182;-49
2023/03/31 08:48:26;;;;;;;6.13;1.90;;;17.80;66.90;18.60;98853.00;;;;5008326;28;20282;-50
2023/03/31 08:50:56;;;;;;;7.40;1.83;;;17.80;67.00;18.60;98851.00;;;;5009596;28;20620;-49
2023/03/31 08:53:41;;;;;;;8.07;1.87;;;17.90;67.10;18.70;98861.00;;;;5008763;28;20169;-50
2023/03/31 08:56:08;;;;;;;6.47;1.97;;;17.90;67.10;18.60;98844.00;;;;5005364;28;20294;-49
2023/03/31 08:58:40;;;;;;;4.50;1.90;;;17.90;67.00;18.50;98852.00;;;;4991270;28;20187;-49
2023/03/31 09:01:30;;;;;;;8.50;1.70;;;17.90;67.00;18.70;98851.00;;;;5008103;28;20171;-50
2023/03/31 09:04:14;;;;;;;3.80;2.00;;;17.90;67.20;18.70;98833.00;;;;5009457;28;20197;-48
2023/03/31 09:07:06;;;;;;;10.13;2.30;;;17.90;67.10;18.60;98838.00;;;;5009262;28;20191;-50
2023/03/31 09:09:59;;;;;;;10.07;2.80;;;17.90;67.10;18.60;98834.00;;;;5008026;28;20205;-50
2023/03/31 09:12:41;;;;;;;8.83;2.00;;;17.90;67.10;18.70;98829.00;;;;5008001;28;20316;-49
2023/03/31 09:15:11;;;;;;;5.27;2.10;;;17.90;67.20;18.70;98832.00;;;;4993408;28;20182;-49
2023/03/31 09:17:46;;;;;;;3.17;1.70;;;17.90;67.10;18.70;98824.00;;;;5008328;28;20266;-50
2023/03/31 09:20:29;;;;;;;10.97;2.50;;;17.90;67.10;18.70;98829.00;;;;5010821;28;20175;-50
2023/03/31 09:23:17;;;;;;;8.00;1.90;;;17.90;67.10;18.70;98816.00;;;;5011597;28;20201;-49
2023/03/31 09:25:43;;;;;;;3.90;1.93;;;17.90;67.10;18.70;98828.00;;;;5008812;28;20194;-49
2023/03/31 09:28:21;;;;;;;6.37;1.83;;;17.90;67.00;18.70;98818.00;;;;4991572;28;20202;-49
2023/03/31 09:30:50;;;;;;;6.40;1.90;;;17.90;67.00;18.70;98827.00;;;;5008686;28;20256;-50
2023/03/31 09:33:30;;;;;;;3.53;1.70;;;17.90;67.00;18.70;98826.00;;;;5007946;28;20621;-49
2023/03/31 09:35:59;;;;;;;3.87;1.63;;;17.90;66.80;18.70;98807.00;;;;5007952;28;20175;-50
2023/03/31 09:38:28;;;;;;;6.07;1.93;;;17.90;66.80;18.70;98814.00;;;;5007870;28;20851;-50
2023/03/31 09:40:56;;;;;;;4.00;1.70;;;17.90;66.70;18.80;98811.00;;;;5008043;28;20183;-50
2023/03/31 09:43:24;;;;;;;3.17;1.77;;;17.90;66.60;18.80;98787.00;;;;5008182;28;20179;-50
2023/03/31 09:45:50;;;;;;;5.27;1.83;;;17.90;66.50;18.80;98794.00;;;;5008857;28;20179;-57
2023/03/31 09:48:22;;;;;;;3.77;1.80;;;18.00;66.60;18.80;98800.00;;;;5009007;28;20199;-58
2023/03/31 09:51:02;;;;;;;3.83;1.80;;;18.00;66.60;18.80;98781.00;;;;5008788;28;20662;-59
2023/03/31 09:53:39;;;;;;;2.50;1.83;;;18.10;67.60;18.80;98801.00;;;;4979078;28;20244;-58
2023/03/31 09:56:07;;;;;;;5.43;2.07;;;18.10;68.20;18.80;98784.00;;;;5011110;28;20175;-58
2023/03/31 09:58:44;;;;;;;3.47;1.60;;;18.10;68.20;18.80;98709.00;;;;5010253;28;20782;-59
2023/03/31 10:01:11;;;;;;;5.13;2.00;;;18.00;68.20;18.80;98776.00;;;;5011458;28;20548;-58
2023/03/31 10:03:48;;;;;;;3.60;1.70;;;18.10;67.60;18.80;98775.00;;;;5010852;28;20353;-58
2023/03/31 10:06:14;;;;;;;3.13;1.67;;;18.10;67.40;18.90;98762.00;;;;5011097;28;20187;-58
2023/03/31 10:08:58;;;;;;;3.97;1.80;;;18.20;67.40;18.90;98760.00;;;;5010384;28;20728;-58
2023/03/31 10:11:26;;;;;;;2.33;1.70;;;18.20;67.40;18.90;98751.00;;;;5007665;28;20202;-57
2023/03/31 10:14:01;;;;;;;3.07;1.70;;;18.20;67.40;18.90;98755.00;;;;5011119;28;20753;-56
2023/03/31 10:16:49;;;;;;;6.77;1.90;;;18.30;67.60;18.90;98750.00;;;;5007286;28;20176;-58
2023/03/31 10:19:27;;;;;;;3.87;1.80;;;18.30;67.60;19.00;98746.00;;;;5004384;28;20786;-60
2023/03/31 10:22:13;;;;;;;3.20;1.70;;;18.30;67.60;19.00;98754.00;;;;5009938;28;20190;-59
2023/03/31 10:24:41;;;;;;;2.80;1.70;;;18.30;67.60;18.90;98762.00;;;;5010389;28;20188;-59
2023/03/31 10:27:29;;;;;;;1.97;1.67;;;18.30;67.40;19.00;98769.00;;;;5010746;28;20172;-60
2023/03/31 10:29:57;;;;;;;3.00;1.67;;;18.30;67.20;18.90;98758.00;;;;5003754;28;20563;-59
2023/03/31 10:32:34;;;;;;;4.03;2.00;;;18.20;67.30;19.00;98762.00;;;;5004444;28;20230;-58
2023/03/31 10:35:25;;;;;;;3.57;1.93;;;18.30;67.40;19.00;98754.00;;;;5016373;28;20180;-58
2023/03/31 10:37:55;;;;;;;2.57;1.70;;;18.30;67.50;19.00;98765.00;;;;4996385;28;20183;-59
2023/03/31 10:40:24;;;;;;;2.33;1.60;;;18.30;67.40;19.00;98741.00;;;;5010133;28;20275;-59
2023/03/31 10:43:13;;;;;;;2.27;1.50;;;18.30;67.00;19.00;98743.00;;;;5008517;28;20195;-59
2023/03/31 10:46:14;;;;;;;2.13;1.60;;;18.30;66.90;19.00;98737.00;;;;5003483;28;20654;-57
2023/03/31 10:48:41;;;;;;;3.03;1.90;;;18.30;67.00;19.00;98731.00;;;;5006342;28;20306;-59
2023/03/31 10:51:26;;;;;;;2.07;1.60;;;18.30;67.20;19.00;98720.00;;;;5009594;28;20176;-59
2023/03/31 10:53:53;;;;;;;3.20;1.70;;;18.40;67.00;19.00;98725.00;;;;5007355;28;20183;-59
2023/03/31 10:56:42;;;;;;;2.80;1.90;;;18.30;66.80;19.00;98711.00;;;;5001869;28;20207;-59
2023/03/31 10:59:35;;;;;;;2.30;1.50;;;18.30;66.80;19.10;98714.00;;;;5002524;28;20174;-59
2023/03/31 11:02:28;;;;;;;3.53;1.63;;;18.30;66.60;19.10;98717.00;;;;5012332;28;20199;-60
2023/03/31 11:05:29;;;;;;;2.03;1.57;;;18.30;66.60;19.10;98715.00;;;;5011824;28;20193;-59
2023/03/31 11:08:13;;;;;;;2.10;1.70;;;18.40;66.60;19.00;98732.00;;;;5001256;28;20222;-59
2023/03/31 11:10:53;;;;;;;3.97;1.70;;;18.30;67.30;19.10;98764.00;;;;5006502;28;20179;-57
2023/03/31 11:13:47;;;;;;;3.73;1.60;;;18.40;66.80;19.10;98769.00;;;;5007922;28;20192;-58
2023/03/31 11:16:46;;;;;;;2.77;1.90;;;18.40;67.00;19.10;98791.00;;;;5008176;28;20210;-58